Time;durP1;ratioP1;P1;durP2;ratioP2;P2;SDS_P1;SDS_P2;PMS_P1;PMS_P2;Temp;Humidity;BMP_temperature;BMP_pressure;BME280_temperature;BME280_humidity;BME280_pressure;Samples;Min_cycle;Max_cycle;Signal;HPM_P1;HPM_P2
2023/01/04 00:01:34;;;;;;;4.07;2.20;;;;;;;;;;5006561;28;20175;-72
2023/01/04 00:04:00;;;;;;;3.53;2.10;;;;;;;;;;5013282;28;20257;-71
2023/01/04 00:06:25;;;;;;;4.83;2.10;;;;;;;;;;4999289;28;20231;-71
2023/01/04 00:08:50;;;;;;;12.50;2.27;;;;;;;;;;5001083;28;20648;-71
2023/01/04 00:11:17;;;;;;;4.33;1.97;;;;;;;;;;5012162;28;20195;-71
2023/01/04 00:13:43;;;;;;;5.37;2.77;;;;;;;;;;5008265;28;20195;-71
2023/01/04 00:16:10;;;;;;;2.27;1.77;;;;;;;;;;5012689;28;20550;-71
2023/01/04 00:18:36;;;;;;;2.83;2.00;;;;;;;;;;4995101;28;20528;-72
2023/01/04 00:21:14;;;;;;;3.83;2.17;;;;;;;;;;5011302;28;20213;-73
2023/01/04 00:23:41;;;;;;;3.87;1.90;;;;;;;;;;5010024;28;20236;-73
2023/01/04 00:26:10;;;;;;;2.83;1.77;;;;;;;;;;5012671;28;20261;-73
2023/01/04 00:28:35;;;;;;;4.23;2.00;;;;;;;;;;5011533;28;20655;-72
2023/01/04 00:31:01;;;;;;;3.37;2.77;;;;;;;;;;5012656;28;20198;-72
2023/01/04 00:33:26;;;;;;;2.37;1.80;;;;;;;;;;5003569;28;20333;-73
2023/01/04 00:35:52;;;;;;;2.43;2.10;;;;;;;;;;5007693;28;20170;-72
2023/01/04 00:38:17;;;;;;;3.17;1.93;;;;;;;;;;5011540;28;20181;-73
2023/01/04 00:40:42;;;;;;;6.03;2.00;;;;;;;;;;5011761;28;20194;-72
2023/01/04 00:43:07;;;;;;;2.73;1.63;;;;;;;;;;5011572;28;20586;-72
2023/01/04 00:45:32;;;;;;;2.33;1.50;;;;;;;;;;5004712;28;20279;-73
2023/01/04 00:47:57;;;;;;;6.73;2.00;;;;;;;;;;5011563;28;20175;-73
2023/01/04 00:50:23;;;;;;;5.20;1.60;;;;;;;;;;5003472;28;20239;-73
2023/01/04 00:52:48;;;;;;;2.03;1.77;;;;;;;;;;5007149;28;20191;-74
2023/01/04 00:55:13;;;;;;;2.63;1.70;;;;;;;;;;5006156;28;20175;-73
2023/01/04 00:57:39;;;;;;;2.37;1.70;;;;;;;;;;5008113;28;20181;-74
2023/01/04 01:00:04;;;;;;;2.17;1.50;;;;;;;;;;5007827;28;20191;-73
2023/01/04 01:02:29;;;;;;;5.03;1.70;;;;;;;;;;5005050;28;20179;-73
2023/01/04 01:04:54;;;;;;;4.10;1.50;;;;;;;;;;5007256;28;20213;-74
2023/01/04 01:07:20;;;;;;;7.50;2.00;;;;;;;;;;5000752;28;20195;-73
2023/01/04 01:09:45;;;;;;;3.03;1.90;;;;;;;;;;5019696;22;20215;-79
2023/01/04 01:12:10;;;;;;;5.10;1.97;;;;;;;;;;5011513;28;20593;-79
2023/01/04 01:14:35;;;;;;;2.30;1.90;;;;;;;;;;5008869;28;20260;-78
2023/01/04 01:17:01;;;;;;;4.23;2.20;;;;;;;;;;4995825;28;20278;-77
2023/01/04 01:19:27;;;;;;;2.27;2.07;;;;;;;;;;5001553;28;20266;-79
2023/01/04 01:21:52;;;;;;;2.40;2.20;;;;;;;;;;5007156;28;20301;-78
2023/01/04 01:24:18;;;;;;;3.13;2.27;;;;;;;;;;4999427;28;20234;-78
2023/01/04 01:26:43;;;;;;;3.20;2.73;;;;;;;;;;5007634;28;20186;-78
2023/01/04 01:29:08;;;;;;;3.57;2.30;;;;;;;;;;5010497;28;20189;-79
2023/01/04 01:31:33;;;;;;;4.30;2.73;;;;;;;;;;5008808;28;20195;-78
2023/01/04 01:34:00;;;;;;;3.83;2.30;;;;;;;;;;5005855;28;20734;-78
2023/01/04 01:36:25;;;;;;;3.40;3.00;;;;;;;;;;5003446;28;20548;-78
2023/01/04 01:38:51;;;;;;;5.77;2.93;;;;;;;;;;5011081;28;20178;-78
2023/01/04 01:41:17;;;;;;;3.30;3.00;;;;;;;;;;5009328;28;20199;-78
2023/01/04 01:43:52;;;;;;;3.27;2.83;;;;;;;;;;5007539;28;20182;-78
2023/01/04 01:46:20;;;;;;;3.53;3.23;;;;;;;;;;4999507;28;20551;-78
2023/01/04 01:48:46;;;;;;;4.00;2.70;;;;;;;;;;5003861;28;20233;-77
2023/01/04 01:51:13;;;;;;;6.43;3.77;;;;;;;;;;5008338;28;20206;-77
2023/01/04 01:53:39;;;;;;;4.10;3.70;;;;;;;;;;5006353;28;20232;-77
2023/01/04 01:56:06;;;;;;;4.87;4.20;;;;;;;;;;5008408;28;20171;-77
2023/01/04 01:58:36;;;;;;;5.30;3.70;;;;;;;;;;5008418;28;20175;-78
2023/01/04 02:01:01;;;;;;;7.67;5.03;;;;;;;;;;5001393;28;20194;-78
2023/01/04 02:03:31;;;;;;;6.53;5.80;;;;;;;;;;5004855;28;20237;-78
2023/01/04 02:05:57;;;;;;;7.23;6.23;;;;;;;;;;5010730;28;20187;-78
2023/01/04 02:08:23;;;;;;;8.67;7.47;;;;;;;;;;5003437;28;20583;-78
2023/01/04 02:10:49;;;;;;;9.37;7.97;;;;;;;;;;5004943;28;20306;-78
2023/01/04 02:13:16;;;;;;;10.50;8.63;;;;;;;;;;5002909;28;20281;-78
2023/01/04 02:15:47;;;;;;;10.60;8.93;;;;;;;;;;5004979;28;20183;-78
2023/01/04 02:18:15;;;;;;;11.97;8.90;;;;;;;;;;5013608;28;20183;-78
2023/01/04 02:20:43;;;;;;;12.13;8.50;;;;;;;;;;5007873;28;20218;-78
2023/01/04 02:23:23;;;;;;;12.13;9.17;;;;;;;;;;5016081;28;20175;-79
2023/01/04 02:26:07;;;;;;;11.53;9.90;;;;;;;;;;5010923;28;20179;-78
2023/01/04 02:28:50;;;;;;;9.97;7.90;;;;;;;;;;5012080;28;20956;-78
2023/01/04 02:31:28;;;;;;;8.60;7.50;;;;;;;;;;5014373;28;20221;-78
2023/01/04 02:34:11;;;;;;;8.63;7.70;;;;;;;;;;5011685;28;20230;-78
2023/01/04 02:36:37;;;;;;;15.60;9.33;;;;;;;;;;5014406;28;20179;-78
2023/01/04 02:39:20;;;;;;;11.27;9.30;;;;;;;;;;5014574;28;20249;-79
2023/01/04 02:41:51;;;;;;;10.03;8.83;;;;;;;;;;5020759;28;20203;-78
2023/01/04 02:47:05;;;;;;;8.23;6.73;;;;;;;;;;5012854;28;20189;-78
2023/01/04 02:52:15;;;;;;;4.73;4.23;;;;;;;;;;5012858;28;20265;-78
2023/01/04 02:54:40;;;;;;;5.67;4.10;;;;;;;;;;5004681;28;20219;-78
2023/01/04 02:57:12;;;;;;;4.80;4.30;;;;;;;;;;5023775;28;20171;-78
2023/01/04 02:59:37;;;;;;;5.33;4.43;;;;;;;;;;5006088;28;20183;-78
2023/01/04 03:08:01;;;;;;;11.00;4.90;;;;;;;;;;5002307;28;21185;-77
2023/01/04 03:10:35;;;;;;;5.50;4.73;;;;;;;;;;5013189;28;20598;-78
2023/01/04 03:13:06;;;;;;;5.27;4.77;;;;;;;;;;5010214;28;20574;-77
2023/01/04 03:15:33;;;;;;;6.87;4.70;;;;;;;;;;5013308;28;20532;-78
2023/01/04 03:18:04;;;;;;;4.90;4.40;;;;;;;;;;5002818;28;20206;-79
2023/01/04 03:20:30;;;;;;;5.43;4.20;;;;;;;;;;5011810;28;20191;-79
2023/01/04 03:36:59;;;;;;;4.97;4.43;;;;;;;;;;5011482;28;20194;-79
2023/01/04 03:48:29;;;;;;;5.87;3.70;;;;;;;;;;5012111;28;20277;-77
2023/01/04 03:51:07;;;;;;;3.50;3.20;;;;;;;;;;5004931;28;20195;-79
2023/01/04 03:53:34;;;;;;;5.20;3.43;;;;;;;;;;5009065;28;20209;-79
2023/01/04 03:56:00;;;;;;;2.60;2.40;;;;;;;;;;5007636;28;20179;-79
2023/01/04 03:58:25;;;;;;;3.50;3.20;;;;;;;;;;5013295;28;20733;-78
2023/01/04 04:00:51;;;;;;;2.73;2.53;;;;;;;;;;5011691;28;20195;-79
2023/01/04 04:03:16;;;;;;;2.97;2.50;;;;;;;;;;5008271;28;20171;-78
2023/01/04 04:08:29;;;;;;;3.40;2.90;;;;;;;;;;5007395;28;20280;-78
2023/01/04 04:11:28;;;;;;;3.33;3.03;;;;;;;;;;4994389;28;20207;-78
2023/01/04 04:13:43;;;;;;;4.37;3.17;;;;;;;;;;5004969;28;20314;-78
2023/01/04 04:16:08;;;;;;;3.33;3.03;;;;;;;;;;4998251;28;20688;-78
2023/01/04 04:18:33;;;;;;;4.43;3.57;;;;;;;;;;5002375;28;20262;-78
2023/01/04 04:20:58;;;;;;;3.10;2.80;;;;;;;;;;5006753;28;20187;-77
2023/01/04 04:23:23;;;;;;;4.20;3.03;;;;;;;;;;5004272;28;20309;-77
2023/01/04 04:25:49;;;;;;;3.67;2.63;;;;;;;;;;5005943;28;20214;-77
2023/01/04 04:28:14;;;;;;;3.90;3.60;;;;;;;;;;5005869;28;20224;-78
2023/01/04 04:30:39;;;;;;;4.63;3.23;;;;;;;;;;5005398;28;20229;-77
2023/01/04 04:33:04;;;;;;;4.97;3.30;;;;;;;;;;5004821;28;20210;-77
2023/01/04 04:35:29;;;;;;;3.33;2.70;;;;;;;;;;5007245;28;20661;-78
2023/01/04 04:37:55;;;;;;;3.03;2.17;;;;;;;;;;4997346;28;20187;-78
2023/01/04 04:43:06;;;;;;;5.07;3.13;;;;;;;;;;5009747;28;20190;-78
2023/01/04 04:45:31;;;;;;;2.38;2.17;;;;;;;;;;5004840;28;20182;-78
2023/01/04 04:47:56;;;;;;;4.63;2.60;;;;;;;;;;5011280;28;20639;-78
2023/01/04 04:50:22;;;;;;;2.80;2.60;;;;;;;;;;5003335;28;20195;-77
2023/01/04 04:52:47;;;;;;;4.43;2.50;;;;;;;;;;5001850;28;20183;-77
2023/01/04 04:55:12;;;;;;;3.00;2.70;;;;;;;;;;5002558;28;20179;-77
2023/01/04 04:57:37;;;;;;;3.75;3.45;;;;;;;;;;5001014;28;20174;-78
2023/01/04 05:00:02;;;;;;;6.43;3.60;;;;;;;;;;5003805;28;20191;-77
2023/01/04 05:02:28;;;;;;;4.40;3.87;;;;;;;;;;5001342;28;20397;-78
2023/01/04 05:04:53;;;;;;;5.43;4.37;;;;;;;;;;5001542;28;20224;-77
2023/01/04 05:07:18;;;;;;;5.73;5.13;;;;;;;;;;5009366;28;20262;-78
2023/01/04 05:09:43;;;;;;;9.03;5.83;;;;;;;;;;4996783;28;20258;-78
2023/01/04 05:14:54;;;;;;;6.83;5.20;;;;;;;;;;4999546;28;20703;-78
2023/01/04 05:17:20;;;;;;;7.27;5.97;;;;;;;;;;5004663;28;20179;-77
2023/01/04 05:19:45;;;;;;;6.00;5.27;;;;;;;;;;5002709;28;20199;-78
2023/01/04 05:22:10;;;;;;;7.17;6.13;;;;;;;;;;5008332;28;20607;-77
2023/01/04 05:24:35;;;;;;;6.13;5.13;;;;;;;;;;5009942;28;20199;-77
2023/01/04 05:27:00;;;;;;;6.30;5.60;;;;;;;;;;5000778;28;20180;-76
2023/01/04 05:32:10;;;;;;;8.47;6.13;;;;;;;;;;5003649;28;20197;-80
2023/01/04 05:34:35;;;;;;;9.60;5.23;;;;;;;;;;5008894;28;20612;-77
2023/01/04 05:37:00;;;;;;;6.90;5.97;;;;;;;;;;4999778;28;20179;-78
2023/01/04 05:39:25;;;;;;;7.00;5.00;;;;;;;;;;5009204;28;20210;-78
2023/01/04 05:44:34;;;;;;;5.93;5.13;;;;;;;;;;5003576;28;20186;-78
2023/01/04 05:46:59;;;;;;;5.40;4.35;;;;;;;;;;5009795;28;20183;-78
2023/01/04 05:49:24;;;;;;;6.20;4.87;;;;;;;;;;5007312;28;20195;-81
2023/01/04 05:51:50;;;;;;;5.75;4.90;;;;;;;;;;5008548;28;20631;-78
2023/01/04 05:54:15;;;;;;;6.30;5.13;;;;;;;;;;5011828;28;20556;-78
2023/01/04 05:56:40;;;;;;;5.80;4.80;;;;;;;;;;5002540;28;20164;-78
2023/01/04 05:59:05;;;;;;;5.13;4.47;;;;;;;;;;5013196;28;20175;-78
2023/01/04 06:01:30;;;;;;;6.00;5.40;;;;;;;;;;5017170;28;20191;-79
2023/01/04 06:03:56;;;;;;;5.93;4.90;;;;;;;;;;5016982;28;20206;-80
2023/01/04 06:06:21;;;;;;;5.40;4.90;;;;;;;;;;5015357;28;20194;-78
2023/01/04 06:08:47;;;;;;;5.73;5.17;;;;;;;;;;5010928;28;20678;-78
2023/01/04 06:11:12;;;;;;;7.50;5.30;;;;;;;;;;5011409;28;20257;-79
2023/01/04 06:13:37;;;;;;;6.50;4.90;;;;;;;;;;5010554;28;20207;-78
2023/01/04 06:16:02;;;;;;;7.67;4.60;;;;;;;;;;5020890;28;20171;-77
2023/01/04 06:18:27;;;;;;;7.27;5.07;;;;;;;;;;5014226;28;20215;-78
2023/01/04 06:20:53;;;;;;;6.40;5.20;;;;;;;;;;5011320;28;20644;-78
2023/01/04 06:23:18;;;;;;;6.03;5.10;;;;;;;;;;5023532;28;20182;-81
2023/01/04 06:25:43;;;;;;;7.18;4.88;;;;;;;;;;5018944;28;20205;-78
2023/01/04 06:28:08;;;;;;;5.85;5.05;;;;;;;;;;5017952;28;20448;-80
2023/01/04 06:30:33;;;;;;;5.53;4.30;;;;;;;;;;5014699;28;20274;-79
2023/01/04 06:32:59;;;;;;;5.03;4.53;;;;;;;;;;5017654;28;20470;-79
2023/01/04 06:35:24;;;;;;;9.80;5.00;;;;;;;;;;5012365;28;20559;-80
2023/01/04 06:37:49;;;;;;;5.43;4.05;;;;;;;;;;5011662;28;20187;-79
2023/01/04 06:40:14;;;;;;;5.38;4.15;;;;;;;;;;5020259;28;20190;-79
2023/01/04 06:42:45;;;;;;;5.70;4.90;;;;;;;;;;5007832;28;20230;-82
2023/01/04 06:45:11;;;;;;;7.93;4.97;;;;;;;;;;5015423;28;20517;-78
2023/01/04 06:47:37;;;;;;;6.47;4.00;;;;;;;;;;5005905;28;20241;-79
2023/01/04 06:50:03;;;;;;;8.32;4.40;;;;;;;;;;5019090;28;20220;-80
2023/01/04 06:52:28;;;;;;;4.82;4.32;;;;;;;;;;5006837;28;20228;-80
2023/01/04 06:54:53;;;;;;;6.00;4.97;;;;;;;;;;5016534;28;20203;-80
2023/01/04 06:57:19;;;;;;;7.13;4.90;;;;;;;;;;5013497;28;20272;-80
2023/01/04 06:59:44;;;;;;;5.67;4.03;;;;;;;;;;5014185;28;20247;-80
2023/01/04 07:02:12;;;;;;;4.05;3.70;;;;;;;;;;5011139;28;20178;-80
2023/01/04 07:04:37;;;;;;;7.15;4.03;;;;;;;;;;5017030;28;20211;-80
2023/01/04 07:07:03;;;;;;;5.90;4.43;;;;;;;;;;5016994;28;20171;-80
2023/01/04 07:09:28;;;;;;;5.43;3.93;;;;;;;;;;5018532;28;20659;-80
2023/01/04 07:11:53;;;;;;;7.38;4.57;;;;;;;;;;5006564;28;20180;-80
2023/01/04 07:14:18;;;;;;;5.38;3.80;;;;;;;;;;5006195;28;20217;-80
2023/01/04 07:16:43;;;;;;;5.25;3.55;;;;;;;;;;5015863;28;20171;-80
2023/01/04 07:19:08;;;;;;;9.13;3.65;;;;;;;;;;5013665;28;20225;-80
2023/01/04 07:21:34;;;;;;;6.40;4.07;;;;;;;;;;5002337;28;20218;-81
2023/01/04 07:23:59;;;;;;;5.22;3.05;;;;;;;;;;5005851;28;20637;-79
2023/01/04 07:26:24;;;;;;;8.73;3.90;;;;;;;;;;5007876;28;20221;-80
2023/01/04 07:31:33;;;;;;;6.57;2.90;;;;;;;;;;5009007;28;20250;-80
2023/01/04 07:33:58;;;;;;;7.78;3.05;;;;;;;;;;5010442;28;20203;-80
2023/01/04 07:36:23;;;;;;;7.87;2.67;;;;;;;;;;5019029;28;20202;-81
2023/01/04 07:38:49;;;;;;;9.25;3.00;;;;;;;;;;5013638;28;20217;-80
2023/01/04 07:41:14;;;;;;;5.15;2.65;;;;;;;;;;5018945;28;20203;-80
2023/01/04 07:43:39;;;;;;;5.80;2.63;;;;;;;;;;5012243;28;20187;-81
2023/01/04 07:46:04;;;;;;;4.90;2.38;;;;;;;;;;5021144;28;20183;-82
2023/01/04 07:48:29;;;;;;;12.15;3.22;;;;;;;;;;5020936;28;20171;-82
2023/01/04 07:50:55;;;;;;;4.40;2.90;;;;;;;;;;5014617;28;20210;-81
2023/01/04 07:53:20;;;;;;;4.63;2.60;;;;;;;;;;5007203;28;20209;-81
2023/01/04 07:55:45;;;;;;;3.90;2.58;;;;;;;;;;5015533;28;20191;-81
2023/01/04 07:58:10;;;;;;;4.77;2.80;;;;;;;;;;5017218;28;20206;-81
2023/01/04 08:00:35;;;;;;;4.75;3.47;;;;;;;;;;5012909;28;20330;-81
2023/01/04 08:03:01;;;;;;;4.60;3.25;;;;;;;;;;5005083;28;20203;-81
2023/01/04 08:05:26;;;;;;;4.25;3.00;;;;;;;;;;5014837;28;20238;-80
2023/01/04 08:07:51;;;;;;;5.57;3.60;;;;;;;;;;5007190;28;20724;-80
2023/01/04 08:10:16;;;;;;;3.78;3.30;;;;;;;;;;5013658;28;20640;-81
2023/01/04 08:12:42;;;;;;;6.70;3.63;;;;;;;;;;5016959;28;20175;-81
2023/01/04 08:15:07;;;;;;;3.35;3.05;;;;;;;;;;5016815;28;20203;-81
2023/01/04 08:17:32;;;;;;;3.92;3.50;;;;;;;;;;5006819;28;20611;-81
2023/01/04 08:20:00;;;;;;;3.92;3.50;;;;;;;;;;5009582;28;20233;-81
2023/01/04 08:22:25;;;;;;;4.10;3.42;;;;;;;;;;5008331;28;20549;-81
2023/01/04 08:24:50;;;;;;;3.85;3.30;;;;;;;;;;5011631;28;20175;-82
2023/01/04 08:27:15;;;;;;;5.13;3.67;;;;;;;;;;5014880;28;20186;-80
2023/01/04 08:29:40;;;;;;;5.00;4.00;;;;;;;;;;5025094;28;20261;-81
2023/01/04 08:32:06;;;;;;;6.53;3.45;;;;;;;;;;5012113;28;20358;-80
2023/01/04 08:34:31;;;;;;;4.30;3.53;;;;;;;;;;5005615;28;20203;-81
2023/01/04 08:36:57;;;;;;;3.78;3.40;;;;;;;;;;5005883;28;20168;-79
2023/01/04 08:39:22;;;;;;;8.27;4.10;;;;;;;;;;5004202;28;20193;-82
2023/01/04 08:41:50;;;;;;;4.43;3.60;;;;;;;;;;5010824;28;20230;-81
2023/01/04 08:44:23;;;;;;;4.53;4.00;;;;;;;;;;5015044;28;20317;-82
2023/01/04 08:46:49;;;;;;;4.72;3.90;;;;;;;;;;5013012;28;20179;-81
2023/01/04 08:49:14;;;;;;;5.57;3.90;;;;;;;;;;5020780;28;20206;-81
2023/01/04 08:51:40;;;;;;;4.80;3.80;;;;;;;;;;5008668;28;20526;-81
2023/01/04 08:54:05;;;;;;;4.65;4.00;;;;;;;;;;5007192;28;20210;-81
2023/01/04 08:56:31;;;;;;;4.88;3.92;;;;;;;;;;5011654;28;20203;-81
2023/01/04 08:58:56;;;;;;;4.72;3.65;;;;;;;;;;5016436;28;20615;-80
2023/01/04 09:01:21;;;;;;;4.63;3.42;;;;;;;;;;5014620;28;20191;-81
2023/01/04 09:03:46;;;;;;;4.68;3.90;;;;;;;;;;5007459;28;20607;-82
2023/01/04 09:06:12;;;;;;;5.00;4.15;;;;;;;;;;5014936;28;20209;-81
2023/01/04 09:08:38;;;;;;;8.13;3.58;;;;;;;;;;5011418;28;20631;-81
2023/01/04 09:11:04;;;;;;;6.03;3.83;;;;;;;;;;5016075;28;20238;-80
2023/01/04 09:13:30;;;;;;;6.67;3.07;;;;;;;;;;5018293;28;20199;-82
2023/01/04 09:15:58;;;;;;;5.30;3.38;;;;;;;;;;5018169;28;20790;-82
2023/01/04 09:18:23;;;;;;;4.80;2.60;;;;;;;;;;5016786;28;20175;-81
2023/01/04 09:20:48;;;;;;;4.90;2.78;;;;;;;;;;5013003;28;20465;-80
2023/01/04 09:23:14;;;;;;;5.70;2.35;;;;;;;;;;5016509;28;20175;-81
2023/01/04 09:25:39;;;;;;;3.58;2.40;;;;;;;;;;5012806;28;20904;-80
2023/01/04 09:28:04;;;;;;;4.43;2.15;;;;;;;;;;5015580;28;20191;-81
2023/01/04 09:30:30;;;;;;;4.72;2.33;;;;;;;;;;5013896;28;20458;-81
2023/01/04 09:32:55;;;;;;;4.75;2.13;;;;;;;;;;5018153;28;20175;-81
2023/01/04 09:35:20;;;;;;;5.72;1.80;;;;;;;;;;5015193;28;20557;-80
2023/01/04 09:37:46;;;;;;;6.85;2.47;;;;;;;;;;5010178;28;20482;-81
2023/01/04 09:40:18;;;;;;;3.35;2.10;;;;;;;;;;5015446;28;20240;-80
2023/01/04 09:42:44;;;;;;;5.88;1.70;;;;;;;;;;5011153;28;20167;-81
2023/01/04 09:45:17;;;;;;;4.35;1.77;;;;;;;;;;5011383;28;20283;-81
2023/01/04 09:47:52;;;;;;;3.83;1.80;;;;;;;;;;5008245;28;20676;-80
2023/01/04 09:50:20;;;;;;;3.78;1.77;;;;;;;;;;5014541;28;20202;-80
2023/01/04 09:52:49;;;;;;;3.88;1.70;;;;;;;;;;5017271;28;20179;-80
2023/01/04 09:55:26;;;;;;;5.88;2.55;;;;;;;;;;5016013;28;20206;-80
2023/01/04 09:57:54;;;;;;;5.72;2.05;;;;;;;;;;5017181;28;20309;-80
2023/01/04 10:00:42;;;;;;;4.38;2.22;;;;;;;;;;5012105;28;20199;-80
2023/01/04 10:03:13;;;;;;;4.47;1.98;;;;;;;;;;5017052;28;20539;-80
2023/01/04 10:05:39;;;;;;;4.03;2.08;;;;;;;;;;5015809;28;20174;-80
2023/01/04 10:08:09;;;;;;;3.35;1.80;;;;;;;;;;5013662;28;20176;-80
2023/01/04 10:10:34;;;;;;;2.75;1.73;;;;;;;;;;5010698;28;20207;-80
2023/01/04 10:13:08;;;;;;;2.92;1.77;;;;;;;;;;5019668;28;20217;-79
2023/01/04 10:15:45;;;;;;;4.93;2.42;;;;;;;;;;5015430;28;20183;-81
2023/01/04 10:18:29;;;;;;;4.65;1.80;;;;;;;;;;5017740;28;20198;-80
2023/01/04 10:21:01;;;;;;;7.13;2.40;;;;;;;;;;5015564;28;20195;-80
2023/01/04 10:23:33;;;;;;;4.30;1.98;;;;;;;;;;5016923;28;20651;-80
2023/01/04 10:26:23;;;;;;;4.93;2.10;;;;;;;;;;5006773;28;20703;-80
2023/01/04 10:29:02;;;;;;;5.10;2.17;;;;;;;;;;5014741;28;20187;-80
2023/01/04 10:31:37;;;;;;;5.28;2.78;;;;;;;;;;5016795;28;20203;-80
2023/01/04 10:34:15;;;;;;;7.65;3.00;;;;;;;;;;5011493;28;20668;-79
2023/01/04 10:36:40;;;;;;;6.80;2.90;;;;;;;;;;5015052;28;20175;-80
2023/01/04 10:39:13;;;;;;;11.85;3.42;;;;;;;;;;5009760;28;20226;-80
2023/01/04 10:41:41;;;;;;;6.68;3.22;;;;;;;;;;5022162;28;20205;-79
2023/01/04 10:44:19;;;;;;;4.72;2.72;;;;;;;;;;5015697;28;20664;-80
2023/01/04 10:47:03;;;;;;;8.50;2.85;;;;;;;;;;5011304;28;20194;-80
2023/01/04 10:49:37;;;;;;;4.70;2.85;;;;;;;;;;4999750;28;20757;-77
2023/01/04 10:52:25;;;;;;;4.88;2.85;;;;;;;;;;5014631;28;20221;-77
2023/01/04 10:54:53;;;;;;;8.13;2.75;;;;;;;;;;5006632;28;20211;-80
2023/01/04 10:57:24;;;;;;;9.05;2.38;;;;;;;;;;5007740;28;20580;-80
2023/01/04 11:00:00;;;;;;;4.30;2.63;;;;;;;;;;5004856;28;20198;-79
2023/01/04 11:02:32;;;;;;;4.53;2.38;;;;;;;;;;5016322;28;20174;-80
2023/01/04 11:05:08;;;;;;;8.10;2.40;;;;;;;;;;5016046;28;20206;-79
2023/01/04 11:07:39;;;;;;;8.00;4.10;;;;;;;;;;5011691;28;20183;-79
2023/01/04 11:10:04;;;;;;;6.60;2.83;;;;;;;;;;5009397;28;20206;-80
2023/01/04 11:12:30;;;;;;;6.07;2.90;;;;;;;;;;5016283;28;20183;-79
2023/01/04 11:14:55;;;;;;;4.43;2.80;;;;;;;;;;5016205;28;20623;-79
2023/01/04 11:17:22;;;;;;;3.97;2.47;;;;;;;;;;5013475;28;20252;-78
2023/01/04 11:19:47;;;;;;;9.40;2.60;;;;;;;;;;5016560;28;20199;-79
2023/01/04 11:22:14;;;;;;;5.88;3.13;;;;;;;;;;5007795;28;20257;-79
2023/01/04 11:24:41;;;;;;;7.93;2.60;;;;;;;;;;5006125;28;20190;-79
2023/01/04 11:27:11;;;;;;;7.05;2.78;;;;;;;;;;5011201;28;20179;-79
2023/01/04 11:29:40;;;;;;;2.78;2.08;;;;;;;;;;5013690;28;20270;-79
2023/01/04 11:32:32;;;;;;;7.65;3.03;;;;;;;;;;5013673;28;20262;-79
2023/01/04 11:34:57;;;;;;;5.95;2.80;;;;;;;;;;5009078;28;20219;-79
2023/01/04 11:37:27;;;;;;;5.47;2.78;;;;;;;;;;4994826;28;20619;-79
2023/01/04 11:40:12;;;;;;;4.78;2.60;;;;;;;;;;5003334;28;20183;-79
2023/01/04 11:42:37;;;;;;;3.75;2.30;;;;;;;;;;5006330;28;20167;-79
2023/01/04 11:45:02;;;;;;;5.40;2.50;;;;;;;;;;5011286;28;20225;-79
2023/01/04 11:47:28;;;;;;;2.75;2.35;;;;;;;;;;5000093;28;20794;-79
2023/01/04 11:49:54;;;;;;;4.03;2.75;;;;;;;;;;5011684;28;20292;-78
2023/01/04 11:52:36;;;;;;;11.18;2.42;;;;;;;;;;5012794;28;20183;-78
2023/01/04 11:55:21;;;;;;;5.82;2.47;;;;;;;;;;5000007;28;20202;-78
2023/01/04 11:57:47;;;;;;;5.10;2.00;;;;;;;;;;5000660;28;20219;-79
2023/01/04 12:00:15;;;;;;;10.98;2.20;;;;;;;;;;5014427;28;20219;-78
2023/01/04 12:02:40;;;;;;;3.63;1.95;;;;;;;;;;5010669;28;20648;-78
2023/01/04 12:05:16;;;;;;;9.05;2.25;;;;;;;;;;5004364;28;20207;-78
2023/01/04 12:07:41;;;;;;;6.00;2.10;;;;;;;;;;5007193;28;20218;-78
2023/01/04 12:10:25;;;;;;;7.40;2.15;;;;;;;;;;5006629;28;20245;-78
2023/01/04 12:12:51;;;;;;;6.70;2.00;;;;;;;;;;5006624;28;20234;-78
2023/01/04 12:15:20;;;;;;;5.05;1.60;;;;;;;;;;5000649;28;20219;-78
2023/01/04 12:17:52;;;;;;;5.15;2.00;;;;;;;;;;4999993;28;20524;-78
2023/01/04 12:20:19;;;;;;;5.97;2.33;;;;;;;;;;5011270;28;20187;-78
2023/01/04 12:22:44;;;;;;;3.70;1.38;;;;;;;;;;5012838;28;20175;-78
2023/01/04 12:25:28;;;;;;;5.93;1.70;;;;;;;;;;5006249;28;20583;-78
2023/01/04 12:27:56;;;;;;;3.40;1.42;;;;;;;;;;5012644;28;20656;-78
2023/01/04 12:30:33;;;;;;;10.23;2.08;;;;;;;;;;5012745;28;20821;-78
2023/01/04 12:32:58;;;;;;;7.10;2.30;;;;;;;;;;5010576;28;20232;-79
2023/01/04 12:35:42;;;;;;;7.78;1.48;;;;;;;;;;5004180;28;20187;-78
2023/01/04 12:38:08;;;;;;;7.65;1.60;;;;;;;;;;4999044;28;20174;-78
2023/01/04 12:40:46;;;;;;;8.88;1.58;;;;;;;;;;5003270;28;20203;-78
2023/01/04 12:43:14;;;;;;;9.05;1.67;;;;;;;;;;5008440;28;20641;-78
2023/01/04 12:45:43;;;;;;;5.20;1.80;;;;;;;;;;5001541;28;20192;-78
2023/01/04 12:51:18;;;;;;;5.55;1.60;;;;;;;;;;5008782;28;20197;-79
2023/01/04 12:53:49;;;;;;;9.20;1.95;;;;;;;;;;5010374;28;20203;-78
2023/01/04 12:56:14;;;;;;;6.35;1.88;;;;;;;;;;4999630;28;20183;-78
2023/01/04 12:58:41;;;;;;;9.07;1.92;;;;;;;;;;5011267;28;20175;-78
2023/01/04 13:01:07;;;;;;;3.13;1.45;;;;;;;;;;5008811;28;20614;-78
2023/01/04 13:03:34;;;;;;;8.48;2.05;;;;;;;;;;5010346;28;20190;-78
2023/01/04 13:06:01;;;;;;;7.95;1.42;;;;;;;;;;5006410;28;20178;-78
2023/01/04 13:08:31;;;;;;;11.13;4.63;;;;;;;;;;5000292;28;20270;-78
2023/01/04 13:10:57;;;;;;;8.00;2.28;;;;;;;;;;5009428;28;20246;-78
2023/01/04 13:13:38;;;;;;;6.63;1.60;;;;;;;;;;5011777;28;20238;-78
2023/01/04 13:16:21;;;;;;;8.15;2.13;;;;;;;;;;4997297;28;20167;-77
2023/01/04 13:18:49;;;;;;;5.50;1.40;;;;;;;;;;5008956;28;20175;-78
2023/01/04 13:21:14;;;;;;;7.43;1.58;;;;;;;;;;5011968;28;20191;-78
2023/01/04 13:23:44;;;;;;;5.18;1.58;;;;;;;;;;5009668;28;20561;-77
2023/01/04 13:26:27;;;;;;;6.18;2.13;;;;;;;;;;5000773;28;20195;-77
2023/01/04 13:29:13;;;;;;;4.80;1.65;;;;;;;;;;5020255;28;20238;-78
2023/01/04 13:31:57;;;;;;;10.70;2.15;;;;;;;;;;5007979;28;20329;-78
2023/01/04 13:34:22;;;;;;;4.53;1.67;;;;;;;;;;5007585;28;20261;-78
2023/01/04 13:37:07;;;;;;;7.43;2.10;;;;;;;;;;5001841;28;20846;-77
2023/01/04 13:39:32;;;;;;;14.80;3.80;;;;;;;;;;5006359;28;20171;-78
2023/01/04 13:41:58;;;;;;;4.70;1.58;;;;;;;;;;5010431;28;20269;-77
2023/01/04 13:44:23;;;;;;;7.13;2.60;;;;;;;;;;5005536;28;20217;-77
2023/01/04 13:46:50;;;;;;;6.60;1.83;;;;;;;;;;5000930;28;20182;-77
2023/01/04 13:49:16;;;;;;;8.77;2.30;;;;;;;;;;5007726;28;20428;-76
2023/01/04 13:51:41;;;;;;;13.75;2.00;;;;;;;;;;5011287;28;20213;-77
2023/01/04 13:54:16;;;;;;;7.05;2.00;;;;;;;;;;5006150;28;20306;-77
2023/01/04 13:56:42;;;;;;;10.23;1.67;;;;;;;;;;5002060;28;20184;-77
2023/01/04 13:59:08;;;;;;;7.65;1.58;;;;;;;;;;5006551;28;20254;-77
2023/01/04 14:01:37;;;;;;;9.50;1.83;;;;;;;;;;5010876;28;20199;-77
2023/01/04 14:04:10;;;;;;;4.82;1.77;;;;;;;;;;5008030;28;20266;-77
2023/01/04 14:06:47;;;;;;;5.32;1.50;;;;;;;;;;5008105;28;20198;-77
2023/01/04 14:09:14;;;;;;;5.95;1.92;;;;;;;;;;5007503;28;20185;-77
2023/01/04 14:12:02;;;;;;;7.43;1.58;;;;;;;;;;5005205;28;20215;-76
2023/01/04 14:14:46;;;;;;;12.93;2.00;;;;;;;;;;5009172;28;20214;-76
2023/01/04 14:17:11;;;;;;;10.07;2.40;;;;;;;;;;5003389;28;20206;-76
2023/01/04 14:19:52;;;;;;;11.07;1.53;;;;;;;;;;5011838;28;20210;-76
2023/01/04 14:22:20;;;;;;;5.43;2.08;;;;;;;;;;5011091;28;20416;-78
2023/01/04 14:24:45;;;;;;;8.68;2.00;;;;;;;;;;5007247;28;20176;-76
2023/01/04 14:27:29;;;;;;;7.28;1.90;;;;;;;;;;5006928;28;20183;-78
2023/01/04 14:29:55;;;;;;;5.55;1.52;;;;;;;;;;5012714;28;20253;-76
2023/01/04 14:32:20;;;;;;;8.55;1.48;;;;;;;;;;5010083;28;20589;-76
2023/01/04 14:34:45;;;;;;;4.63;1.55;;;;;;;;;;5004017;28;20515;-76
2023/01/04 14:37:10;;;;;;;11.07;1.52;;;;;;;;;;5005321;28;20175;-76
2023/01/04 14:39:36;;;;;;;9.05;1.60;;;;;;;;;;4999712;28;20171;-76
2023/01/04 14:42:02;;;;;;;8.90;1.92;;;;;;;;;;5004787;28;20522;-75
2023/01/04 14:44:29;;;;;;;9.95;2.13;;;;;;;;;;5002644;28;20649;-76
2023/01/04 14:46:55;;;;;;;5.35;1.70;;;;;;;;;;5012018;28;20178;-76
2023/01/04 14:49:21;;;;;;;6.60;1.60;;;;;;;;;;5007704;28;20199;-76
2023/01/04 14:51:47;;;;;;;9.23;1.80;;;;;;;;;;5013297;28;20187;-76
2023/01/04 14:54:13;;;;;;;11.75;2.10;;;;;;;;;;5004454;28;20250;-76
2023/01/04 14:56:39;;;;;;;11.23;2.20;;;;;;;;;;5004267;28;20540;-76
2023/01/04 14:59:04;;;;;;;12.07;2.42;;;;;;;;;;4999854;28;20183;-76
2023/01/04 15:01:30;;;;;;;11.15;2.85;;;;;;;;;;4997936;28;20214;-76
2023/01/04 15:03:55;;;;;;;8.73;2.33;;;;;;;;;;5013695;28;20232;-78
2023/01/04 15:06:20;;;;;;;13.05;2.95;;;;;;;;;;5013499;28;20237;-76
2023/01/04 15:08:46;;;;;;;9.85;2.83;;;;;;;;;;5013362;28;20703;-76
2023/01/04 15:11:12;;;;;;;12.43;2.88;;;;;;;;;;5010910;28;20206;-78
2023/01/04 15:13:37;;;;;;;12.50;2.50;;;;;;;;;;5011581;28;20229;-75
2023/01/04 15:16:02;;;;;;;11.93;3.00;;;;;;;;;;5006660;28;20164;-75
2023/01/04 15:18:28;;;;;;;14.57;2.90;;;;;;;;;;5012977;28;20577;-78
2023/01/04 15:20:53;;;;;;;12.75;3.75;;;;;;;;;;5008713;28;20203;-78
2023/01/04 15:23:18;;;;;;;13.30;4.05;;;;;;;;;;5010896;28;20171;-78
2023/01/04 15:25:44;;;;;;;16.35;4.68;;;;;;;;;;5014106;28;20601;-78
2023/01/04 15:28:09;;;;;;;14.30;3.22;;;;;;;;;;5013782;28;20266;-77
2023/01/04 15:30:34;;;;;;;16.80;3.03;;;;;;;;;;5009372;28;20195;-77
2023/01/04 15:32:59;;;;;;;18.38;4.65;;;;;;;;;;5001140;28;20695;-77
2023/01/04 15:35:25;;;;;;;14.60;3.65;;;;;;;;;;5000034;28;20617;-77
2023/01/04 15:37:51;;;;;;;22.45;4.50;;;;;;;;;;5007279;28;20524;-77
2023/01/04 15:40:16;;;;;;;16.15;3.40;;;;;;;;;;4998387;28;20190;-77